Time;durP1;ratioP1;P1;durP2;ratioP2;P2;SDS_P1;SDS_P2;PMS_P1;PMS_P2;Temp;Humidity;BMP_temperature;BMP_pressure;BME280_temperature;BME280_humidity;BME280_pressure;Samples;Min_cycle;Max_cycle;Signal;HPM_P1;HPM_P2
2022/05/12 00:01:28;;;;;;;5.00;3.23;;;21.60;50.00;;;;;;5056282;28;20485;-59
2022/05/12 00:03:57;;;;;;;5.10;2.60;;;;;;;;;;5056469;28;20449;-58
2022/05/12 00:06:24;;;;;;;5.00;3.27;;;21.50;49.70;;;;;;5056295;28;20540;-58
2022/05/12 00:08:51;;;;;;;3.80;3.40;;;21.40;50.20;;;;;;5055882;28;20588;-58
2022/05/12 00:11:18;;;;;;;3.20;3.00;;;21.50;50.40;;;;;;5055859;28;20445;-58
2022/05/12 00:13:45;;;;;;;7.13;3.50;;;21.40;50.40;;;;;;5056239;28;20815;-59
2022/05/12 00:16:13;;;;;;;4.20;3.27;;;21.40;50.60;;;;;;5055856;28;20818;-59
2022/05/12 00:18:40;;;;;;;3.80;3.40;;;;;;;;;;5055807;28;20823;-59
2022/05/12 00:21:09;;;;;;;5.20;3.80;;;21.30;50.50;;;;;;5055592;28;20485;-58
2022/05/12 00:23:36;;;;;;;3.10;2.90;;;21.30;51.10;;;;;;5055754;28;20459;-59
2022/05/12 00:26:03;;;;;;;3.37;3.07;;;21.30;51.20;;;;;;5055826;28;20556;-59
2022/05/12 00:28:30;;;;;;;3.80;3.10;;;21.30;51.30;;;;;;5055639;28;20469;-58
2022/05/12 00:30:59;;;;;;;4.10;3.53;;;21.30;51.40;;;;;;5055517;28;20537;-58
2022/05/12 00:33:27;;;;;;;4.27;3.73;;;21.20;51.50;;;;;;5054673;28;20998;-59
2022/05/12 00:35:55;;;;;;;3.80;3.50;;;21.20;51.70;;;;;;5055547;28;20453;-58
2022/05/12 00:38:24;;;;;;;3.57;3.27;;;21.10;51.80;;;;;;5055687;28;20519;-59
2022/05/12 00:40:51;;;;;;;3.80;3.17;;;21.10;51.90;;;;;;5055523;28;20485;-59
2022/05/12 00:43:37;;;;;;;4.27;3.40;;;21.10;52.20;;;;;;5055479;28;20469;-59
2022/05/12 00:46:05;;;;;;;3.87;3.57;;;21.10;52.70;;;;;;5055270;28;20442;-58
2022/05/12 00:48:33;;;;;;;4.90;3.93;;;21.10;52.50;;;;;;5055540;28;20496;-58
2022/05/12 00:51:00;;;;;;;4.93;3.10;;;21.10;52.40;;;;;;5055376;28;20448;-59
2022/05/12 00:53:30;;;;;;;3.50;3.20;;;21.10;52.60;;;;;;5055176;28;20932;-59
2022/05/12 00:55:59;;;;;;;4.90;3.20;;;21.00;52.60;;;;;;5054955;28;20518;-58
2022/05/12 00:58:27;;;;;;;3.90;3.60;;;21.00;53.00;;;;;;5055066;28;20972;-59
2022/05/12 01:00:55;;;;;;;6.03;3.67;;;21.00;53.10;;;;;;5054827;28;20849;-58
2022/05/12 01:03:24;;;;;;;4.13;3.57;;;21.00;53.30;;;;;;5055300;28;20503;-59
2022/05/12 01:05:52;;;;;;;3.20;2.93;;;20.90;53.20;;;;;;5055167;28;20495;-58
2022/05/12 01:08:21;;;;;;;3.80;3.50;;;20.90;53.60;;;;;;5055036;28;20480;-59
2022/05/12 01:10:54;;;;;;;9.60;4.10;;;20.80;53.60;;;;;;5055045;28;20446;-59
2022/05/12 01:13:22;;;;;;;3.90;3.60;;;20.80;54.00;;;;;;5055170;28;20441;-59
2022/05/12 01:15:52;;;;;;;5.70;3.50;;;20.80;54.00;;;;;;5054976;28;20453;-59
2022/05/12 01:18:19;;;;;;;3.80;3.50;;;20.70;54.50;;;;;;5054703;28;20535;-58
2022/05/12 01:20:47;;;;;;;3.50;3.20;;;20.70;54.70;;;;;;5054542;28;20499;-58
2022/05/12 01:23:27;;;;;;;4.07;3.77;;;20.70;55.00;;;;;;5054652;28;20445;-59
2022/05/12 01:25:57;;;;;;;4.50;3.70;;;20.70;55.20;;;;;;5055194;28;20785;-59
2022/05/12 01:28:25;;;;;;;5.57;3.80;;;20.80;55.10;;;;;;5054748;28;20465;-59
2022/05/12 01:30:52;;;;;;;4.83;3.80;;;20.80;55.10;;;;;;5054794;28;20530;-58
2022/05/12 01:33:19;;;;;;;3.97;3.50;;;20.80;55.20;;;;;;5054220;28;20480;-58
2022/05/12 01:35:46;;;;;;;3.60;3.30;;;20.80;55.40;;;;;;5054922;28;20506;-58
2022/05/12 01:38:14;;;;;;;3.97;3.57;;;20.90;55.60;;;;;;5054300;28;20867;-58
2022/05/12 01:40:43;;;;;;;3.57;3.27;;;20.80;56.50;;;;;;5054365;28;21090;-59
2022/05/12 01:43:10;;;;;;;3.50;3.20;;;20.80;56.60;;;;;;5054458;28;20438;-58
2022/05/12 01:45:38;;;;;;;4.47;4.07;;;20.80;56.80;;;;;;5053934;28;20971;-58
2022/05/12 01:48:08;;;;;;;6.63;3.80;;;20.70;56.80;;;;;;5054065;28;20815;-58
2022/05/12 01:50:37;;;;;;;4.70;3.50;;;20.70;57.00;;;;;;5054304;28;20436;-59
2022/05/12 01:53:04;;;;;;;4.63;4.23;;;20.70;57.50;;;;;;5054053;28;20949;-59
2022/05/12 01:55:32;;;;;;;3.60;3.30;;;20.60;57.80;;;;;;5053975;28;20457;-58
2022/05/12 01:58:00;;;;;;;4.27;3.87;;;20.60;58.20;;;;;;5054234;28;20469;-58
2022/05/12 02:00:29;;;;;;;3.90;3.60;;;20.60;58.40;;;;;;5054035;28;20480;-57
2022/05/12 02:03:00;;;;;;;3.80;3.43;;;20.60;58.30;;;;;;5053882;28;20503;-58
2022/05/12 02:05:28;;;;;;;4.20;3.63;;;20.50;58.40;;;;;;5053772;28;20429;-58
2022/05/12 02:07:55;;;;;;;3.50;3.20;;;20.50;58.90;;;;;;5053741;28;20932;-58
2022/05/12 02:10:26;;;;;;;6.00;4.10;;;20.50;59.00;;;;;;5053844;28;20554;-58
2022/05/12 02:12:54;;;;;;;4.47;4.07;;;20.50;59.00;;;;;;5054019;28;20429;-58
2022/05/12 02:15:23;;;;;;;3.57;3.27;;;20.50;59.40;;;;;;5053837;28;20491;-58
2022/05/12 02:17:51;;;;;;;3.77;3.47;;;20.50;59.80;;;;;;5053862;28;20456;-58
2022/05/12 02:20:20;;;;;;;4.80;3.77;;;20.50;59.50;;;;;;5053473;28;20460;-58
2022/05/12 02:22:48;;;;;;;3.73;3.43;;;20.40;59.90;;;;;;5053767;28;20483;-58
2022/05/12 02:25:15;;;;;;;8.90;4.23;;;20.40;59.90;;;;;;5053640;28;20480;-58
2022/05/12 02:27:45;;;;;;;4.60;3.80;;;20.40;60.10;;;;;;5053735;28;20520;-58
2022/05/12 02:30:15;;;;;;;4.73;3.90;;;20.30;64.70;;;;;;5053274;28;20453;-58
2022/05/12 02:32:44;;;;;;;5.00;3.17;;;20.30;60.50;;;;;;5053381;28;20480;-58
2022/05/12 02:35:11;;;;;;;7.07;3.87;;;20.20;61.50;;;;;;5053263;28;20461;-58
2022/05/12 02:37:39;;;;;;;5.90;3.83;;;20.30;62.90;;;;;;5053332;28;20475;-58
2022/05/12 02:40:10;;;;;;;4.40;4.00;;;20.20;63.30;;;;;;5053135;28;20887;-58
2022/05/12 02:42:37;;;;;;;4.73;4.17;;;20.20;63.30;;;;;;5053469;28;20477;-59
2022/05/12 02:45:05;;;;;;;4.73;3.70;;;20.20;64.50;;;;;;5053398;28;20475;-59
2022/05/12 02:47:32;;;;;;;4.83;3.43;;;20.30;65.50;;;;;;5053483;28;20453;-58
2022/05/12 02:50:01;;;;;;;3.60;3.30;;;20.20;66.10;;;;;;5053014;28;20552;-58
2022/05/12 02:52:28;;;;;;;3.47;3.17;;;20.20;66.60;;;;;;5053478;28;20441;-58
2022/05/12 02:54:56;;;;;;;9.53;3.67;;;20.30;67.20;;;;;;5052906;28;20451;-58
2022/05/12 02:57:23;;;;;;;4.10;3.30;;;20.20;67.60;;;;;;5052984;28;20458;-57
2022/05/12 02:59:50;;;;;;;4.13;3.57;;;20.30;68.10;;;;;;5053232;28;20467;-57
2022/05/12 03:02:18;;;;;;;3.40;3.10;;;20.30;68.00;;;;;;5053029;28;20486;-59
2022/05/12 03:04:46;;;;;;;3.40;3.10;;;20.30;68.50;;;;;;5052932;28;20536;-59
2022/05/12 03:07:14;;;;;;;6.70;3.30;;;20.30;69.60;;;;;;5053333;28;20456;-59
2022/05/12 03:09:42;;;;;;;5.20;3.03;;;20.30;69.20;;;;;;5052984;28;20526;-58
2022/05/12 03:12:10;;;;;;;2.93;2.73;;;20.30;70.10;;;;;;5052964;28;20967;-59
2022/05/12 03:14:37;;;;;;;4.77;2.90;;;20.20;70.30;;;;;;5053080;28;20449;-59
2022/05/12 03:17:04;;;;;;;3.97;3.67;;;20.10;70.50;;;;;;5052922;28;20935;-58
2022/05/12 03:19:32;;;;;;;4.97;3.40;;;20.10;71.80;;;;;;5052788;28;20500;-59
2022/05/12 03:21:59;;;;;;;4.80;3.10;;;20.10;72.30;;;;;;5052822;28;21009;-59
2022/05/12 03:24:28;;;;;;;3.30;2.90;;;20.10;71.90;;;;;;5053076;28;20927;-59
2022/05/12 03:26:55;;;;;;;4.23;3.00;;;20.10;72.30;;;;;;5053366;28;20457;-59
2022/05/12 03:29:22;;;;;;;3.97;3.30;;;20.10;72.80;;;;;;5052832;28;20473;-59
2022/05/12 03:31:49;;;;;;;3.33;2.93;;;20.10;73.00;;;;;;5052762;28;20804;-59
2022/05/12 03:34:17;;;;;;;4.60;3.40;;;20.00;73.10;;;;;;5052527;28;20556;-58
2022/05/12 03:36:44;;;;;;;3.30;3.00;;;20.00;73.80;;;;;;5052969;28;20449;-59
2022/05/12 03:39:11;;;;;;;4.13;3.70;;;20.00;74.10;;;;;;5052619;28;20484;-59
2022/05/12 03:41:40;;;;;;;3.67;3.30;;;19.90;75.20;;;;;;5052590;28;20481;-59
2022/05/12 03:46:52;;;;;;;16.43;3.60;;;20.00;74.50;;;;;;5052818;28;20480;-58
2022/05/12 03:49:19;;;;;;;4.23;3.10;;;20.00;74.80;;;;;;5052439;28;20473;-58
2022/05/12 03:51:47;;;;;;;3.20;2.43;;;20.00;75.20;;;;;;5052885;28;20528;-58
2022/05/12 03:54:14;;;;;;;3.10;2.80;;;20.00;75.40;;;;;;5052446;28;20456;-58
2022/05/12 03:56:43;;;;;;;2.47;2.27;;;20.00;75.10;;;;;;5053037;28;20457;-58
2022/05/12 03:59:11;;;;;;;3.03;2.73;;;20.00;75.50;;;;;;5052376;28;20972;-58
2022/05/12 04:01:38;;;;;;;3.20;2.90;;;20.00;75.60;;;;;;5052768;28;20485;-58
2022/05/12 04:04:06;;;;;;;4.63;2.30;;;19.90;76.10;;;;;;5052355;28;20996;-58
2022/05/12 04:06:33;;;;;;;3.83;2.87;;;19.90;76.80;;;;;;5052709;28;20541;-59
2022/05/12 04:09:00;;;;;;;5.57;2.40;;;19.90;77.40;;;;;;5052698;28;20465;-60
2022/05/12 04:11:27;;;;;;;2.90;2.60;;;19.90;77.60;;;;;;5056342;28;20441;-58
2022/05/12 04:13:56;;;;;;;3.13;2.93;;;19.90;77.70;;;;;;5055932;28;20441;-59
2022/05/12 04:16:23;;;;;;;2.80;2.60;;;19.80;78.80;;;;;;5055912;28;20449;-59
2022/05/12 04:18:51;;;;;;;3.00;2.40;;;19.80;78.30;;;;;;5056072;28;20522;-58
2022/05/12 04:21:18;;;;;;;2.47;2.27;;;19.80;78.80;;;;;;5055789;28;20517;-58
2022/05/12 04:23:45;;;;;;;3.93;2.80;;;19.80;79.20;;;;;;5055893;28;20430;-58
2022/05/12 04:26:12;;;;;;;4.37;2.00;;;19.80;79.70;;;;;;5055872;28;20452;-58
2022/05/12 04:28:39;;;;;;;4.20;2.30;;;19.90;79.40;;;;;;5055922;28;20495;-58
2022/05/12 04:31:08;;;;;;;5.67;2.93;;;19.80;80.70;;;;;;5055540;28;20548;-59
2022/05/12 04:36:19;;;;;;;5.10;2.17;;;19.70;81.50;;;;;;5055675;28;20405;-58
2022/05/12 04:38:46;;;;;;;2.83;2.63;;;19.70;81.90;;;;;;5055593;28;20466;-59
2022/05/12 04:41:15;;;;;;;2.80;2.60;;;19.70;83.00;;;;;;5055612;28;20524;-59
2022/05/12 04:43:42;;;;;;;2.83;2.63;;;19.70;83.70;;;;;;5055454;28;20450;-58
2022/05/12 04:46:11;;;;;;;3.20;2.70;;;19.70;85.50;;;;;;5055660;28;20875;-58
2022/05/12 04:48:39;;;;;;;3.57;2.70;;;19.70;84.80;;;;;;5055124;28;20476;-59
2022/05/12 04:51:07;;;;;;;3.93;2.80;;;19.60;85.10;;;;;;5055595;28;20583;-59
2022/05/12 04:53:35;;;;;;;6.30;2.93;;;19.60;87.90;;;;;;5054993;28;20452;-58
2022/05/12 04:56:02;;;;;;;7.60;5.30;;;19.60;88.30;;;;;;5055364;28;20459;-59
2022/05/12 04:58:29;;;;;;;3.00;2.70;;;19.60;89.60;;;;;;5055255;28;20975;-59
2022/05/12 05:00:57;;;;;;;4.97;3.37;;;19.60;90.40;;;;;;5055233;28;20460;-59
2022/05/12 05:03:26;;;;;;;2.60;2.40;;;19.60;90.70;;;;;;5055136;28;20491;-58
2022/05/12 05:05:53;;;;;;;2.97;2.70;;;19.60;91.20;;;;;;5055284;28;20454;-59
2022/05/12 05:08:22;;;;;;;3.00;2.70;;;19.70;91.20;;;;;;5054716;28;20505;-59
2022/05/12 05:10:51;;;;;;;2.80;2.50;;;19.80;91.30;;;;;;5054920;28;20533;-60
2022/05/12 05:13:19;;;;;;;3.30;2.93;;;19.80;91.20;;;;;;5054743;28;20503;-60
2022/05/12 05:15:47;;;;;;;3.13;2.70;;;19.90;91.00;;;;;;5054977;28;20453;-60
2022/05/12 05:18:16;;;;;;;3.57;2.87;;;19.90;91.30;;;;;;5055134;28;20507;-60
2022/05/12 05:20:46;;;;;;;3.03;2.47;;;20.00;90.30;;;;;;5054407;28;20863;-60
2022/05/12 05:23:15;;;;;;;8.03;2.80;;;20.10;91.00;;;;;;5054761;28;20466;-59
2022/05/12 05:25:42;;;;;;;3.80;2.40;;;20.10;90.30;;;;;;5054741;28;20518;-60
2022/05/12 05:28:13;;;;;;;3.23;2.93;;;20.20;90.60;;;;;;5054851;28;20888;-59
2022/05/12 05:30:41;;;;;;;2.60;2.40;;;20.30;90.20;;;;;;5054761;28;20520;-59
2022/05/12 05:33:08;;;;;;;2.80;2.57;;;20.40;90.80;;;;;;5054292;28;20568;-60
2022/05/12 05:35:35;;;;;;;3.00;2.33;;;20.40;90.80;;;;;;5054161;28;20939;-59
2022/05/12 05:38:05;;;;;;;3.83;2.70;;;20.50;90.50;;;;;;5054426;28;20522;-59
2022/05/12 05:40:32;;;;;;;3.20;2.50;;;20.40;90.90;;;;;;5054374;28;20454;-59
2022/05/12 05:43:00;;;;;;;3.00;2.70;;;20.40;90.70;;;;;;5054094;28;20481;-59
2022/05/12 05:45:27;;;;;;;2.73;2.53;;;20.40;91.00;;;;;;5054190;28;20822;-60
2022/05/12 05:47:58;;;;;;;3.73;2.77;;;20.30;90.80;;;;;;5053960;28;20445;-60
2022/05/12 05:50:30;;;;;;;4.00;2.90;;;20.40;91.50;;;;;;5053680;28;20437;-59
2022/05/12 05:55:43;;;;;;;2.93;2.63;;;20.50;91.10;;;;;;5053934;28;20939;-58
2022/05/12 05:58:11;;;;;;;2.90;2.23;;;20.70;90.90;;;;;;5053586;28;20544;-60
2022/05/12 06:00:39;;;;;;;2.83;2.53;;;20.70;91.60;;;;;;5054132;28;20498;-59
2022/05/12 06:03:07;;;;;;;7.23;2.93;;;20.60;90.90;;;;;;5053390;28;20527;-60
2022/05/12 06:05:34;;;;;;;5.20;3.47;;;20.60;91.00;;;;;;5053986;28;20549;-59
2022/05/12 06:08:01;;;;;;;3.90;2.93;;;20.50;91.30;;;;;;5053880;28;20476;-59
2022/05/12 06:10:29;;;;;;;3.03;2.30;;;20.40;91.80;;;;;;5053614;28;20559;-59
2022/05/12 06:12:58;;;;;;;2.90;2.57;;;20.40;91.70;;;;;;5053733;28;20444;-59
2022/05/12 06:15:26;;;;;;;3.13;2.57;;;20.40;92.10;;;;;;5053792;28;20450;-59
2022/05/12 06:17:54;;;;;;;4.70;2.40;;;20.40;91.70;;;;;;5053716;28;20445;-60
2022/05/12 06:20:22;;;;;;;9.03;3.40;;;20.40;91.80;;;;;;5053806;28;20447;-60
2022/05/12 06:22:49;;;;;;;3.33;2.67;;;20.40;92.00;;;;;;5053100;28;20999;-60
2022/05/12 06:25:17;;;;;;;4.80;2.60;;;20.30;92.60;;;;;;5053282;28;20453;-59
2022/05/12 06:27:45;;;;;;;3.00;2.53;;;20.40;92.20;;;;;;5053061;28;20453;-60
2022/05/12 06:30:15;;;;;;;4.40;2.80;;;20.50;92.20;;;;;;5053305;28;20540;-60
2022/05/12 06:32:44;;;;;;;3.97;2.70;;;20.50;92.70;;;;;;5052145;28;20473;-59
2022/05/12 06:35:14;;;;;;;4.47;2.63;;;20.50;92.20;;;;;;5052940;28;20449;-60
2022/05/12 06:37:41;;;;;;;2.50;2.30;;;20.70;92.20;;;;;;5053254;28;20468;-59
2022/05/12 06:40:10;;;;;;;3.00;2.57;;;20.80;92.60;;;;;;5053061;28;20440;-59
2022/05/12 06:42:38;;;;;;;3.20;2.70;;;21.00;92.40;;;;;;5052873;28;20477;-59
2022/05/12 06:45:06;;;;;;;3.87;2.30;;;21.00;91.70;;;;;;5053019;28;20549;-59
2022/05/12 06:47:35;;;;;;;9.30;3.20;;;21.00;92.10;;;;;;5052813;28;20456;-60
2022/05/12 06:50:03;;;;;;;3.30;3.00;;;21.10;92.60;;;;;;5053100;28;20473;-59
2022/05/12 06:52:30;;;;;;;2.33;2.13;;;21.00;92.20;;;;;;5052754;28;20953;-59
2022/05/12 06:54:58;;;;;;;5.03;2.73;;;21.10;92.20;;;;;;5052713;28;21093;-58
2022/05/12 06:57:27;;;;;;;2.60;2.40;;;21.00;92.30;;;;;;5052810;28;20521;-60
2022/05/12 06:59:55;;;;;;;4.43;2.37;;;20.90;92.70;;;;;;5052699;28;20465;-58
2022/05/12 07:02:22;;;;;;;3.40;2.40;;;20.80;93.00;;;;;;5052581;28;20481;-59
2022/05/12 07:04:52;;;;;;;2.93;2.33;;;20.90;93.90;;;;;;5053120;28;20442;-58
2022/05/12 07:07:21;;;;;;;3.30;2.47;;;20.90;93.70;;;;;;5052914;28;20453;-59
2022/05/12 07:09:52;;;;;;;10.53;3.13;;;20.90;93.20;;;;;;5052738;28;20528;-58
2022/05/12 07:12:20;;;;;;;4.77;2.30;;;21.00;93.30;;;;;;5052969;28;20428;-59
2022/05/12 07:14:47;;;;;;;5.57;2.77;;;20.90;93.10;;;;;;5052938;28;20525;-58
2022/05/12 07:17:18;;;;;;;3.33;2.57;;;21.00;93.30;;;;;;5052653;28;20936;-59
2022/05/12 07:19:48;;;;;;;5.70;2.30;;;21.00;93.70;;;;;;5052684;28;20556;-58
2022/05/12 07:27:45;;;;;;;4.77;2.07;;;21.00;93.60;;;;;;5052527;28;20440;-59
2022/05/12 07:30:13;;;;;;;6.63;2.13;;;21.00;93.80;;;;;;5052541;28;20430;-59
2022/05/12 07:32:40;;;;;;;4.37;2.97;;;21.00;93.60;;;;;;5052102;28;20483;-59
2022/05/12 07:35:09;;;;;;;4.47;2.90;;;20.90;93.60;;;;;;5052198;28;20940;-59
2022/05/12 07:37:38;;;;;;;3.17;2.40;;;20.80;94.20;;;;;;5052564;28;20449;-59
2022/05/12 07:40:07;;;;;;;7.67;2.60;;;20.90;93.90;;;;;;5052488;28;20875;-58
2022/05/12 07:42:34;;;;;;;4.60;2.50;;;20.90;94.00;;;;;;5052127;28;20986;-58
2022/05/12 07:45:01;;;;;;;3.77;2.67;;;20.90;94.80;;;;;;5056105;28;20451;-58
2022/05/12 07:47:30;;;;;;;6.83;2.37;;;20.90;94.40;;;;;;5056703;28;20544;-58
2022/05/12 07:49:57;;;;;;;3.63;2.50;;;20.90;95.00;;;;;;5056306;28;20833;-58
2022/05/12 07:52:26;;;;;;;2.73;2.53;;;20.80;95.10;;;;;;5056313;28;20446;-58
2022/05/12 07:54:55;;;;;;;5.10;2.43;;;20.80;94.70;;;;;;5056206;28;20479;-58
2022/05/12 07:57:22;;;;;;;2.90;2.17;;;21.00;94.40;;;;;;5056900;28;20479;-58
2022/05/12 07:59:49;;;;;;;4.90;2.30;;;21.10;94.40;;;;;;5056197;28;20461;-58
2022/05/12 08:02:18;;;;;;;4.53;2.53;;;21.30;94.10;;;;;;5055887;28;20460;-59
2022/05/12 08:04:46;;;;;;;4.30;2.40;;;21.40;94.30;;;;;;5056286;28;20441;-58
2022/05/12 08:07:13;;;;;;;3.70;2.33;;;21.40;94.40;;;;;;5056196;28;20449;-58
2022/05/12 08:09:40;;;;;;;4.50;2.43;;;21.50;94.00;;;;;;5055850;28;20975;-58
2022/05/12 08:12:10;;;;;;;4.90;2.67;;;22.10;94.80;;;;;;5055959;28;20457;-58
2022/05/12 08:14:37;;;;;;;3.30;2.43;;;23.30;93.10;;;;;;5056040;28;20494;-58
2022/05/12 08:17:04;;;;;;;3.43;2.67;;;24.30;91.90;;;;;;5055711;28;20485;-58
2022/05/12 08:19:33;;;;;;;2.87;2.30;;;24.40;90.90;;;;;;5055723;28;20559;-58
2022/05/12 08:22:00;;;;;;;5.27;2.67;;;25.30;89.60;;;;;;5055996;28;20463;-58
2022/05/12 08:24:28;;;;;;;2.30;1.93;;;25.50;89.10;;;;;;5055751;28;20590;-59
2022/05/12 08:26:55;;;;;;;7.83;2.80;;;25.30;87.40;;;;;;5055995;28;20463;-58
2022/05/12 08:29:23;;;;;;;4.67;2.87;;;24.60;88.70;;;;;;5055554;28;20476;-59
2022/05/12 08:31:51;;;;;;;5.37;2.73;;;24.10;89.50;;;;;;5055433;28;20432;-58
2022/05/12 08:34:18;;;;;;;3.20;2.53;;;23.60;90.00;;;;;;5055271;28;20552;-58
2022/05/12 08:36:45;;;;;;;3.00;2.60;;;23.60;90.20;;;;;;5055573;28;20449;-58
2022/05/12 08:39:12;;;;;;;7.13;3.80;;;24.00;90.50;;;;;;5055758;28;20473;-59
2022/05/12 08:41:44;;;;;;;3.90;2.87;;;24.80;88.90;;;;;;5055926;28;20456;-59
2022/05/12 08:44:20;;;;;;;2.93;2.50;;;24.80;88.70;;;;;;5055317;28;20963;-58
2022/05/12 08:46:53;;;;;;;2.83;2.63;;;25.00;88.70;;;;;;5055141;28;20433;-59
2022/05/12 08:49:23;;;;;;;4.30;2.60;;;24.90;88.70;;;;;;5055175;28;20484;-59
2022/05/12 08:51:53;;;;;;;6.43;3.13;;;24.80;88.10;;;;;;5055167;28;20457;-59
2022/05/12 08:54:25;;;;;;;3.33;2.87;;;24.10;89.10;;;;;;5054707;28;20794;-60
2022/05/12 08:56:59;;;;;;;3.13;2.87;;;24.60;89.60;;;;;;5055324;28;20950;-59
2022/05/12 08:59:27;;;;;;;3.40;3.10;;;24.90;86.70;;;;;;5054974;28;20465;-59
2022/05/12 09:02:05;;;;;;;3.60;2.70;;;25.20;85.70;;;;;;5055009;28;20446;-59
2022/05/12 09:05:01;;;;;;;3.33;3.03;;;25.50;85.50;;;;;;5054652;28;20855;-59
2022/05/12 09:07:33;;;;;;;3.20;2.83;;;26.50;83.50;;;;;;5042056;28;20464;-60
2022/05/12 09:10:11;;;;;;;5.70;3.33;;;26.80;81.30;;;;;;5054615;28;20974;-59
2022/05/12 09:12:44;;;;;;;2.77;2.57;;;26.70;80.80;;;;;;5054775;28;20791;-59
2022/05/12 09:15:14;;;;;;;3.83;3.10;;;27.00;81.20;;;;;;5054724;28;20426;-59
2022/05/12 09:17:48;;;;;;;3.60;3.27;;;26.80;79.80;;;;;;5054484;28;20421;-58
2022/05/12 09:20:16;;;;;;;3.53;3.20;;;26.80;80.50;;;;;;5054197;28;20798;-59
2022/05/12 09:22:44;;;;;;;4.20;2.90;;;27.00;80.50;;;;;;5054547;28;20464;-59
2022/05/12 09:25:27;;;;;;;5.77;3.20;;;26.60;80.10;;;;;;5054103;28;20463;-59
2022/05/12 09:27:58;;;;;;;4.77;3.10;;;26.80;78.50;;;;;;5054374;28;20807;-58
2022/05/12 09:30:33;;;;;;;3.60;3.20;;;27.30;79.90;;;;;;5054265;28;20449;-59
2022/05/12 09:33:03;;;;;;;7.23;3.93;;;27.80;76.00;;;;;;5053973;28;20472;-59
2022/05/12 09:35:31;;;;;;;4.17;3.07;;;26.40;78.20;;;;;;5054157;28;20445;-59
2022/05/12 09:37:59;;;;;;;5.93;3.73;;;25.80;79.20;;;;;;5054377;28;20456;-58
2022/05/12 09:40:35;;;;;;;4.70;3.80;;;26.40;78.70;;;;;;5054324;28;20507;-59
2022/05/12 09:43:18;;;;;;;3.83;3.30;;;27.10;77.80;;;;;;5053989;28;20473;-59
2022/05/12 09:45:59;;;;;;;8.43;3.97;;;27.20;77.40;;;;;;5054495;28;20479;-59
2022/05/12 09:48:29;;;;;;;3.87;3.47;;;27.30;75.60;;;;;;5053892;28;20461;-59
2022/05/12 09:51:22;;;;;;;3.70;3.40;;;26.40;76.90;;;;;;5053945;28;20484;-58
2022/05/12 09:53:50;;;;;;;6.20;2.90;;;27.00;78.00;;;;;;5054422;28;20426;-59
2022/05/12 09:56:32;;;;;;;3.27;2.80;;;26.90;78.40;;;;;;5054053;28;20467;-58
2022/05/12 09:59:07;;;;;;;6.87;3.37;;;26.30;79.70;;;;;;5053690;28;20887;-59
2022/05/12 10:01:36;;;;;;;3.90;3.00;;;26.10;81.60;;;;;;5054161;28;20508;-59
2022/05/12 10:09:53;;;;;;;6.23;3.13;;;26.80;81.40;;;;;;5051578;28;20446;-59
2022/05/12 10:12:23;;;;;;;5.10;3.27;;;26.60;80.10;;;;;;5053529;28;20877;-59
2022/05/12 10:14:56;;;;;;;4.07;3.13;;;26.20;78.90;;;;;;5053414;28;20428;-59
2022/05/12 10:17:29;;;;;;;3.73;2.97;;;26.20;80.20;;;;;;5053663;28;20437;-59
2022/05/12 10:19:59;;;;;;;3.63;3.10;;;26.70;80.30;;;;;;5053268;28;20528;-59
2022/05/12 10:22:34;;;;;;;4.63;3.00;;;27.10;79.20;;;;;;5053416;28;20904;-59
2022/05/12 10:25:21;;;;;;;3.73;3.13;;;27.40;78.20;;;;;;5053434;28;20485;-60
2022/05/12 10:27:54;;;;;;;3.63;3.30;;;28.30;75.60;;;;;;5053012;28;20895;-60
2022/05/12 10:30:34;;;;;;;3.87;3.33;;;28.80;73.10;;;;;;5053274;28;20914;-58
2022/05/12 10:33:13;;;;;;;3.20;3.00;;;29.10;73.50;;;;;;5052263;28;20473;-59
2022/05/12 10:35:49;;;;;;;3.53;3.13;;;29.50;73.50;;;;;;5053438;28;20422;-60
2022/05/12 10:38:28;;;;;;;4.40;4.00;;;29.00;70.60;;;;;;5053453;28;20465;-59
2022/05/12 10:41:00;;;;;;;4.23;3.10;;;28.80;74.60;;;;;;5053401;28;20451;-59
2022/05/12 10:43:52;;;;;;;5.73;3.30;;;28.70;71.40;;;;;;5053077;28;20832;-60
2022/05/12 10:46:29;;;;;;;4.80;3.57;;;27.50;72.20;;;;;;5053071;28;20426;-60
2022/05/12 10:49:03;;;;;;;3.97;3.57;;;26.80;74.50;;;;;;5053092;28;20951;-60
2022/05/12 10:51:40;;;;;;;4.40;3.57;;;27.60;72.60;;;;;;5053155;28;20432;-60
2022/05/12 10:54:22;;;;;;;4.50;3.33;;;27.80;72.60;;;;;;5053341;28;20429;-59
2022/05/12 10:57:00;;;;;;;3.43;3.13;;;28.10;75.10;;;;;;5053367;28;20981;-60
2022/05/12 10:59:53;;;;;;;3.10;2.90;;;28.40;74.40;;;;;;5053074;28;20461;-59
2022/05/12 11:02:32;;;;;;;3.80;3.50;;;28.00;74.50;;;;;;5052952;28;20456;-60
2022/05/12 11:05:09;;;;;;;7.30;4.27;;;27.80;71.60;;;;;;5053040;28;20552;-59
2022/05/12 11:07:43;;;;;;;4.00;3.60;;;27.30;73.60;;;;;;5052247;28;20798;-60
2022/05/12 11:10:21;;;;;;;4.03;3.50;;;27.80;73.30;;;;;;5052439;28;20433;-59
2022/05/12 11:12:52;;;;;;;7.10;3.70;;;27.70;73.20;;;;;;5052775;28;20443;-59
2022/05/12 11:15:23;;;;;;;3.73;3.50;;;27.50;73.10;;;;;;5052324;28;20436;-59
2022/05/12 11:17:56;;;;;;;6.30;3.20;;;28.00;72.80;;;;;;5053196;28;20520;-59
2022/05/12 11:20:28;;;;;;;3.60;3.30;;;28.20;70.80;;;;;;5056601;28;21185;-60
2022/05/12 11:23:08;;;;;;;4.17;3.87;;;28.50;73.70;;;;;;5056789;28;20433;-60
2022/05/12 11:25:45;;;;;;;3.93;3.30;;;29.00;71.20;;;;;;5056650;28;20484;-60
2022/05/12 11:31:15;;;;;;;6.13;3.13;;;29.10;69.60;;;;;;5056678;28;20788;-59
2022/05/12 11:33:48;;;;;;;7.77;3.40;;;28.50;69.60;;;;;;5056261;28;20461;-59
2022/05/12 11:36:16;;;;;;;3.70;3.40;;;28.20;69.70;;;;;;5056468;28;20430;-60
2022/05/12 11:38:51;;;;;;;3.47;3.17;;;28.00;72.70;;;;;;5056781;28;20476;-60
2022/05/12 11:41:40;;;;;;;4.83;4.03;;;28.60;70.00;;;;;;5056491;28;20515;-60
2022/05/12 11:44:26;;;;;;;3.97;3.67;;;29.00;69.70;;;;;;5056168;28;20468;-59
2022/05/12 11:47:36;;;;;;;6.47;3.50;;;29.80;67.60;;;;;;5056278;28;20429;-60
2022/05/12 11:50:41;;;;;;;4.50;4.00;;;29.00;68.10;;;;;;5041898;28;20477;-60
2022/05/12 11:53:15;;;;;;;3.90;3.60;;;28.40;69.00;;;;;;5034375;28;20453;-59
2022/05/12 11:56:01;;;;;;;5.20;3.23;;;28.00;72.20;;;;;;5056091;28;20453;-60
2022/05/12 11:58:40;;;;;;;5.23;4.50;;;28.70;68.10;;;;;;5056357;28;20544;-60
2022/05/12 12:01:11;;;;;;;4.07;3.70;;;29.00;67.10;;;;;;5055988;28;20456;-59
2022/05/12 12:04:00;;;;;;;5.10;4.60;;;29.10;67.00;;;;;;5056556;28;20449;-60
2022/05/12 12:06:54;;;;;;;5.77;4.50;;;28.80;66.80;;;;;;5056339;28;20860;-60
2022/05/12 12:09:54;;;;;;;4.70;4.27;;;28.80;67.30;;;;;;5020532;28;20487;-59
2022/05/12 12:12:52;;;;;;;5.27;4.00;;;28.60;68.50;;;;;;5052501;28;20507;-60
2022/05/12 12:15:42;;;;;;;4.83;4.20;;;28.20;68.00;;;;;;5055885;28;20445;-60
2022/05/12 12:18:43;;;;;;;5.27;4.10;;;29.50;66.20;;;;;;5056083;28;20465;-60
2022/05/12 12:21:35;;;;;;;5.33;4.40;;;29.20;67.30;;;;;;5030559;28;20541;-60
2022/05/12 12:24:09;;;;;;;4.37;4.00;;;28.70;68.30;;;;;;5055937;28;20500;-59
2022/05/12 12:26:38;;;;;;;4.80;4.50;;;28.30;67.00;;;;;;5055474;28;20485;-59
2022/05/12 12:29:17;;;;;;;6.53;4.27;;;27.70;68.40;;;;;;5055446;28;20561;-59
2022/05/12 12:31:47;;;;;;;4.13;3.83;;;27.10;70.20;;;;;;5055069;28;20425;-59
2022/05/12 12:34:17;;;;;;;4.43;3.70;;;27.90;72.20;;;;;;5055569;28;20534;-59
2022/05/12 12:36:58;;;;;;;4.03;3.73;;;28.40;72.00;;;;;;5055920;28;20441;-60
2022/05/12 12:39:48;;;;;;;3.90;3.43;;;28.80;70.60;;;;;;5055303;28;20507;-60
2022/05/12 12:42:29;;;;;;;6.77;3.60;;;29.10;69.70;;;;;;5052937;28;20457;-59
2022/05/12 12:45:04;;;;;;;3.50;3.20;;;28.30;68.70;;;;;;5055582;28;20465;-60
2022/05/12 12:47:44;;;;;;;3.83;3.10;;;28.20;71.40;;;;;;5055198;28;20864;-60
2022/05/12 12:50:24;;;;;;;3.80;3.10;;;27.80;71.10;;;;;;5055555;28;20464;-59
2022/05/12 12:52:56;;;;;;;4.43;4.03;;;27.40;74.00;;;;;;5055326;28;20431;-59
2022/05/12 12:58:15;;;;;;;4.13;3.73;;;27.40;72.50;;;;;;5055082;28;20445;-60
2022/05/12 13:00:44;;;;;;;6.10;3.47;;;27.80;73.00;;;;;;5055282;28;20430;-59
2022/05/12 13:03:19;;;;;;;3.70;3.37;;;28.30;72.40;;;;;;5054679;28;20532;-60
2022/05/12 13:05:48;;;;;;;3.83;3.30;;;28.60;72.50;;;;;;5055055;28;20550;-60
2022/05/12 13:08:24;;;;;;;5.03;3.70;;;28.60;71.50;;;;;;5054779;28;20477;-60
2022/05/12 13:10:58;;;;;;;4.53;3.33;;;28.30;71.60;;;;;;5055075;28;20430;-60
2022/05/12 13:13:26;;;;;;;11.70;3.80;;;28.40;72.20;;;;;;5054961;28;20426;-60
2022/05/12 13:15:59;;;;;;;4.90;3.37;;;28.10;72.00;;;;;;5055079;28;20441;-60
2022/05/12 13:18:30;;;;;;;3.60;3.30;;;28.10;74.50;;;;;;5054842;28;20488;-59
2022/05/12 13:20:58;;;;;;;5.27;3.27;;;28.70;72.30;;;;;;5054906;28;20426;-59
2022/05/12 13:23:27;;;;;;;5.27;3.17;;;28.70;71.70;;;;;;5054812;28;20460;-59
2022/05/12 13:25:54;;;;;;;5.53;3.33;;;27.90;73.20;;;;;;5054814;28;20480;-59
2022/05/12 13:28:24;;;;;;;4.53;3.47;;;27.70;73.90;;;;;;5054397;28;20472;-59
2022/05/12 13:30:53;;;;;;;4.90;3.50;;;27.00;74.00;;;;;;5054414;28;20536;-59
2022/05/12 13:33:27;;;;;;;3.90;3.50;;;27.20;74.50;;;;;;5054181;28;20565;-60